Dati Storici

Data ora Umidita' aria (%) Temperatura aria (°C) Rad globale (W/m²) Gonioanemometro (°) Tacoanemometro (m/s) Pioggia (mm)
19-10-2012 00:40 86.4 % 13.718 1.398 250.38 0.76 0
19-10-2012 00:30 86.1 % 13.847 1.167 250.97 1.27 0
19-10-2012 00:20 86.1 % 13.928 1.167 250.059 1.143 0
19-10-2012 00:10 86.2 % 13.946 1.334 268.116 0.577 0
19-10-2012 00:00 86.4 % 13.875 1.218 262.328 0.903 0
18-10-2012 23:50 87.3 % 13.876 1.372 266.64 0.676 0
18-10-2012 23:40 87.5 % 13.66 1.398 260.232 0.277 0
18-10-2012 23:30 87.8 % 13.651 1.552 229.24 0.442 0
18-10-2012 23:20 86.1 % 13.38 1.257 200.103 0.093 0
18-10-2012 23:10 85.3 % 13.65 0.919 245.943 0.207 0
18-10-2012 23:00 84.9 % 14.038 1.061 146.91 0.305 0
18-10-2012 22:50 84.8 % 14.443 1.137 229.619 0.445 0
18-10-2012 22:40 85 % 14.37 0.83 326.031 0.735 0
18-10-2012 22:30 85.1 % 14.371 1.201 264.073 0.38 0
18-10-2012 22:20 86 % 14.566 0.907 291.142 0.775 0
18-10-2012 22:10 86.4 % 14.228 1.24 156.685 0.222 0
18-10-2012 22:00 85.6 % 14.088 1.189 195.658 -0.014 0
18-10-2012 21:50 83.8 % 14.085 0.79 290.771 -0.018 0
18-10-2012 21:40 84 % 14.685 1.419 14.381 0.024 0
18-10-2012 21:30 82.6 % 14.78 1.239 11.972 -0.018 0

I dati sono presentati in modo automatico a scopo informativo. In seguito a verifica i dati possono subire modifiche o essere invalidati e non riportati negli archivi definitivi.